Carnduff, Canada
Current Conditions -  °F | °C
As of 10:00 PM on Tuesday 21 Oct 2014 (Local Time) from CYEN Reporting Station
Few Clouds Few Clouds  
Wind Chill: 46°   Ceiling: Unl
Heat Index: 46°   Visibility: 15mi
Dew Point: 41°   Wind: 3mph
Humidity: 81%   Direction: 120°ESE
Pressure: 29.57"   Gusts: NA
Location:  49.17°N, 101.78°W
Report Text: CYEN 220400Z 12003KT 15SM FEW250 08/05 A2957 RMK CI1 SLP028
Loading
Personal Weather Stations






























Interactive Weather Map
Tropical Storm Tracking
New forecast layout! Learn more

10-Day Weather Forecast

Advertisements
Track Severe Weather on mobile